sensor_id;sensor_type;location;lat;lon;timestamp;P1;durP1;ratioP1;P2;durP2;ratioP2
3847;SDS011;1939;48.720;9.166;2023-07-02T00:00:03;5.57;;;4.27;;
3847;SDS011;1939;48.720;9.166;2023-07-02T00:02:30;5.80;;;4.37;;
3847;SDS011;1939;48.720;9.166;2023-07-02T00:04:55;7.43;;;4.50;;
3847;SDS011;1939;48.720;9.166;2023-07-02T00:07:20;6.40;;;5.13;;
3847;SDS011;1939;48.720;9.166;2023-07-02T00:09:46;5.63;;;3.93;;
3847;SDS011;1939;48.720;9.166;2023-07-02T00:12:11;6.07;;;3.93;;
3847;SDS011;1939;48.720;9.166;2023-07-02T00:14:36;5.60;;;4.17;;
3847;SDS011;1939;48.720;9.166;2023-07-02T00:17:01;4.60;;;3.70;;
3847;SDS011;1939;48.720;9.166;2023-07-02T00:19:27;7.90;;;3.70;;
3847;SDS011;1939;48.720;9.166;2023-07-02T00:21:52;4.70;;;3.97;;
3847;SDS011;1939;48.720;9.166;2023-07-02T00:24:18;5.87;;;5.37;;
3847;SDS011;1939;48.720;9.166;2023-07-02T00:26:43;5.37;;;3.80;;
3847;SDS011;1939;48.720;9.166;2023-07-02T00:29:09;5.00;;;4.13;;
3847;SDS011;1939;48.720;9.166;2023-07-02T00:31:34;4.33;;;3.93;;
3847;SDS011;1939;48.720;9.166;2023-07-02T00:34:00;6.20;;;4.13;;
3847;SDS011;1939;48.720;9.166;2023-07-02T00:36:29;4.20;;;3.27;;
3847;SDS011;1939;48.720;9.166;2023-07-02T00:38:54;5.90;;;4.23;;
3847;SDS011;1939;48.720;9.166;2023-07-02T00:41:20;5.63;;;3.77;;
3847;SDS011;1939;48.720;9.166;2023-07-02T00:43:45;8.80;;;4.03;;
3847;SDS011;1939;48.720;9.166;2023-07-02T00:46:11;5.90;;;4.37;;
3847;SDS011;1939;48.720;9.166;2023-07-02T00:48:38;6.53;;;4.00;;
3847;SDS011;1939;48.720;9.166;2023-07-02T00:51:03;7.10;;;3.60;;
3847;SDS011;1939;48.720;9.166;2023-07-02T00:53:29;4.87;;;3.90;;
3847;SDS011;1939;48.720;9.166;2023-07-02T00:55:54;8.43;;;3.87;;
3847;SDS011;1939;48.720;9.166;2023-07-02T00:58:19;6.87;;;4.07;;
3847;SDS011;1939;48.720;9.166;2023-07-02T01:00:46;5.17;;;4.10;;
3847;SDS011;1939;48.720;9.166;2023-07-02T01:03:11;6.10;;;3.90;;
3847;SDS011;1939;48.720;9.166;2023-07-02T01:05:36;5.70;;;4.17;;
3847;SDS011;1939;48.720;9.166;2023-07-02T01:08:02;6.80;;;4.13;;
3847;SDS011;1939;48.720;9.166;2023-07-02T01:10:28;5.07;;;3.50;;
3847;SDS011;1939;48.720;9.166;2023-07-02T01:12:53;3.47;;;3.17;;
3847;SDS011;1939;48.720;9.166;2023-07-02T01:15:19;10.23;;;4.03;;
3847;SDS011;1939;48.720;9.166;2023-07-02T01:17:44;6.40;;;4.10;;
3847;SDS011;1939;48.720;9.166;2023-07-02T01:20:12;5.10;;;3.73;;
3847;SDS011;1939;48.720;9.166;2023-07-02T01:22:37;7.17;;;4.47;;
3847;SDS011;1939;48.720;9.166;2023-07-02T01:25:03;6.63;;;4.00;;
3847;SDS011;1939;48.720;9.166;2023-07-02T01:27:29;8.23;;;4.20;;
3847;SDS011;1939;48.720;9.166;2023-07-02T01:29:54;5.13;;;3.70;;
3847;SDS011;1939;48.720;9.166;2023-07-02T01:32:20;4.60;;;4.20;;
3847;SDS011;1939;48.720;9.166;2023-07-02T01:34:45;4.67;;;3.50;;
3847;SDS011;1939;48.720;9.166;2023-07-02T01:37:14;6.00;;;3.63;;
3847;SDS011;1939;48.720;9.166;2023-07-02T01:39:39;4.43;;;3.77;;
3847;SDS011;1939;48.720;9.166;2023-07-02T01:42:12;5.00;;;3.87;;
3847;SDS011;1939;48.720;9.166;2023-07-02T01:44:37;5.37;;;4.00;;
3847;SDS011;1939;48.720;9.166;2023-07-02T01:47:03;6.77;;;4.83;;
3847;SDS011;1939;48.720;9.166;2023-07-02T01:49:28;4.63;;;4.10;;
3847;SDS011;1939;48.720;9.166;2023-07-02T01:51:55;7.30;;;4.67;;
3847;SDS011;1939;48.720;9.166;2023-07-02T01:54:20;4.27;;;3.73;;
3847;SDS011;1939;48.720;9.166;2023-07-02T01:56:46;8.50;;;4.20;;
3847;SDS011;1939;48.720;9.166;2023-07-02T01:59:11;6.33;;;4.10;;
3847;SDS011;1939;48.720;9.166;2023-07-02T02:01:37;6.80;;;4.67;;
3847;SDS011;1939;48.720;9.166;2023-07-02T02:04:07;6.30;;;4.63;;
3847;SDS011;1939;48.720;9.166;2023-07-02T02:06:32;7.03;;;5.00;;
3847;SDS011;1939;48.720;9.166;2023-07-02T02:08:58;7.63;;;4.10;;
3847;SDS011;1939;48.720;9.166;2023-07-02T02:11:23;6.00;;;3.90;;
3847;SDS011;1939;48.720;9.166;2023-07-02T02:13:49;5.67;;;4.60;;
3847;SDS011;1939;48.720;9.166;2023-07-02T02:16:14;5.67;;;4.63;;
3847;SDS011;1939;48.720;9.166;2023-07-02T02:18:39;5.70;;;4.20;;
3847;SDS011;1939;48.720;9.166;2023-07-02T02:21:04;5.60;;;4.10;;
3847;SDS011;1939;48.720;9.166;2023-07-02T02:23:29;5.60;;;4.13;;
3847;SDS011;1939;48.720;9.166;2023-07-02T02:25:55;4.33;;;3.93;;
3847;SDS011;1939;48.720;9.166;2023-07-02T02:28:20;9.60;;;5.83;;
3847;SDS011;1939;48.720;9.166;2023-07-02T02:30:45;5.83;;;4.17;;
3847;SDS011;1939;48.720;9.166;2023-07-02T02:33:11;6.40;;;3.80;;
3847;SDS011;1939;48.720;9.166;2023-07-02T02:35:36;6.10;;;3.63;;
3847;SDS011;1939;48.720;9.166;2023-07-02T02:38:02;10.50;;;4.10;;
3847;SDS011;1939;48.720;9.166;2023-07-02T02:40:27;6.33;;;4.80;;
3847;SDS011;1939;48.720;9.166;2023-07-02T02:42:53;6.97;;;4.50;;
3847;SDS011;1939;48.720;9.166;2023-07-02T02:45:18;5.70;;;4.53;;
3847;SDS011;1939;48.720;9.166;2023-07-02T02:47:45;5.70;;;4.63;;
3847;SDS011;1939;48.720;9.166;2023-07-02T02:50:11;9.23;;;4.50;;
3847;SDS011;1939;48.720;9.166;2023-07-02T02:52:37;4.30;;;3.50;;
3847;SDS011;1939;48.720;9.166;2023-07-02T02:55:02;3.90;;;3.40;;
3847;SDS011;1939;48.720;9.166;2023-07-02T02:57:27;5.93;;;3.80;;
3847;SDS011;1939;48.720;9.166;2023-07-02T02:59:52;4.20;;;3.70;;
3847;SDS011;1939;48.720;9.166;2023-07-02T03:02:18;7.10;;;4.90;;
3847;SDS011;1939;48.720;9.166;2023-07-02T03:04:43;9.03;;;6.37;;
3847;SDS011;1939;48.720;9.166;2023-07-02T03:07:09;9.07;;;5.87;;
3847;SDS011;1939;48.720;9.166;2023-07-02T03:09:34;4.97;;;4.30;;
3847;SDS011;1939;48.720;9.166;2023-07-02T03:11:59;4.40;;;3.80;;
3847;SDS011;1939;48.720;9.166;2023-07-02T03:14:25;4.13;;;3.60;;
3847;SDS011;1939;48.720;9.166;2023-07-02T03:16:50;4.67;;;3.67;;
3847;SDS011;1939;48.720;9.166;2023-07-02T03:19:18;4.47;;;2.80;;
3847;SDS011;1939;48.720;9.166;2023-07-02T03:21:44;5.20;;;3.83;;
3847;SDS011;1939;48.720;9.166;2023-07-02T03:24:09;4.43;;;3.43;;
3847;SDS011;1939;48.720;9.166;2023-07-02T03:26:38;8.73;;;4.67;;
3847;SDS011;1939;48.720;9.166;2023-07-02T03:29:03;17.13;;;4.57;;
3847;SDS011;1939;48.720;9.166;2023-07-02T03:31:29;7.10;;;4.10;;
3847;SDS011;1939;48.720;9.166;2023-07-02T03:33:54;5.97;;;4.20;;
3847;SDS011;1939;48.720;9.166;2023-07-02T03:36:19;7.77;;;4.77;;
3847;SDS011;1939;48.720;9.166;2023-07-02T03:38:44;4.83;;;4.00;;
3847;SDS011;1939;48.720;9.166;2023-07-02T03:41:09;8.23;;;4.60;;
3847;SDS011;1939;48.720;9.166;2023-07-02T03:43:35;5.60;;;3.67;;
3847;SDS011;1939;48.720;9.166;2023-07-02T03:46:00;6.10;;;4.47;;
3847;SDS011;1939;48.720;9.166;2023-07-02T03:48:25;7.30;;;4.50;;
3847;SDS011;1939;48.720;9.166;2023-07-02T03:50:51;13.80;;;5.10;;
3847;SDS011;1939;48.720;9.166;2023-07-02T03:53:16;9.43;;;4.50;;
3847;SDS011;1939;48.720;9.166;2023-07-02T03:55:41;10.77;;;4.30;;
3847;SDS011;1939;48.720;9.166;2023-07-02T03:58:06;14.33;;;5.73;;
3847;SDS011;1939;48.720;9.166;2023-07-02T04:00:32;12.40;;;5.40;;
3847;SDS011;1939;48.720;9.166;2023-07-02T04:02:57;8.80;;;5.07;;
3847;SDS011;1939;48.720;9.166;2023-07-02T04:05:22;9.53;;;5.30;;
3847;SDS011;1939;48.720;9.166;2023-07-02T04:07:48;17.40;;;7.23;;
3847;SDS011;1939;48.720;9.166;2023-07-02T04:10:13;7.40;;;5.33;;
3847;SDS011;1939;48.720;9.166;2023-07-02T04:12:39;8.03;;;5.50;;
3847;SDS011;1939;48.720;9.166;2023-07-02T04:15:04;9.20;;;6.10;;
3847;SDS011;1939;48.720;9.166;2023-07-02T04:17:30;9.60;;;5.93;;
3847;SDS011;1939;48.720;9.166;2023-07-02T04:19:55;9.80;;;5.40;;
3847;SDS011;1939;48.720;9.166;2023-07-02T04:22:20;10.77;;;5.90;;
3847;SDS011;1939;48.720;9.166;2023-07-02T04:24:46;14.97;;;5.93;;
3847;SDS011;1939;48.720;9.166;2023-07-02T04:27:14;7.47;;;4.60;;
3847;SDS011;1939;48.720;9.166;2023-07-02T04:29:42;9.50;;;5.40;;
3847;SDS011;1939;48.720;9.166;2023-07-02T04:32:08;6.97;;;5.27;;
3847;SDS011;1939;48.720;9.166;2023-07-02T04:34:33;9.83;;;5.90;;
3847;SDS011;1939;48.720;9.166;2023-07-02T04:36:59;10.37;;;4.80;;
3847;SDS011;1939;48.720;9.166;2023-07-02T04:39:24;16.27;;;5.73;;
3847;SDS011;1939;48.720;9.166;2023-07-02T04:41:49;10.83;;;6.90;;
3847;SDS011;1939;48.720;9.166;2023-07-02T04:44:17;6.40;;;5.00;;
3847;SDS011;1939;48.720;9.166;2023-07-02T04:46:42;6.30;;;4.83;;
3847;SDS011;1939;48.720;9.166;2023-07-02T04:49:07;6.03;;;4.63;;
3847;SDS011;1939;48.720;9.166;2023-07-02T04:51:33;10.53;;;4.70;;
3847;SDS011;1939;48.720;9.166;2023-07-02T04:53:58;12.17;;;5.20;;
3847;SDS011;1939;48.720;9.166;2023-07-02T04:56:23;14.27;;;5.77;;
3847;SDS011;1939;48.720;9.166;2023-07-02T04:58:48;9.53;;;4.50;;
3847;SDS011;1939;48.720;9.166;2023-07-02T05:01:13;7.03;;;3.90;;
3847;SDS011;1939;48.720;9.166;2023-07-02T05:03:39;9.73;;;4.53;;
3847;SDS011;1939;48.720;9.166;2023-07-02T05:06:04;7.57;;;4.30;;
3847;SDS011;1939;48.720;9.166;2023-07-02T05:08:29;5.53;;;3.90;;
3847;SDS011;1939;48.720;9.166;2023-07-02T05:10:54;8.83;;;4.33;;
3847;SDS011;1939;48.720;9.166;2023-07-02T05:13:20;6.60;;;4.73;;
3847;SDS011;1939;48.720;9.166;2023-07-02T05:15:45;8.00;;;3.87;;
3847;SDS011;1939;48.720;9.166;2023-07-02T05:18:11;7.40;;;4.57;;
3847;SDS011;1939;48.720;9.166;2023-07-02T05:20:36;8.30;;;5.07;;
3847;SDS011;1939;48.720;9.166;2023-07-02T05:23:01;13.50;;;4.70;;
3847;SDS011;1939;48.720;9.166;2023-07-02T05:25:26;9.37;;;5.60;;
3847;SDS011;1939;48.720;9.166;2023-07-02T05:27:52;13.97;;;5.80;;
3847;SDS011;1939;48.720;9.166;2023-07-02T05:30:17;10.97;;;5.10;;
3847;SDS011;1939;48.720;9.166;2023-07-02T05:32:42;14.63;;;5.07;;
3847;SDS011;1939;48.720;9.166;2023-07-02T05:35:08;12.50;;;5.00;;
3847;SDS011;1939;48.720;9.166;2023-07-02T05:37:33;12.00;;;5.33;;
3847;SDS011;1939;48.720;9.166;2023-07-02T05:39:58;9.80;;;5.63;;
3847;SDS011;1939;48.720;9.166;2023-07-02T05:42:23;8.33;;;5.30;;
3847;SDS011;1939;48.720;9.166;2023-07-02T05:44:49;9.83;;;4.83;;
3847;SDS011;1939;48.720;9.166;2023-07-02T05:47:14;12.30;;;6.33;;
3847;SDS011;1939;48.720;9.166;2023-07-02T05:49:41;13.33;;;7.33;;
3847;SDS011;1939;48.720;9.166;2023-07-02T05:52:06;12.63;;;6.10;;
3847;SDS011;1939;48.720;9.166;2023-07-02T05:54:31;27.77;;;6.30;;
3847;SDS011;1939;48.720;9.166;2023-07-02T05:56:56;10.33;;;4.50;;
3847;SDS011;1939;48.720;9.166;2023-07-02T05:59:21;10.23;;;4.90;;
3847;SDS011;1939;48.720;9.166;2023-07-02T06:01:47;13.77;;;5.40;;
3847;SDS011;1939;48.720;9.166;2023-07-02T06:04:12;9.20;;;5.50;;
3847;SDS011;1939;48.720;9.166;2023-07-02T06:06:37;10.43;;;6.03;;
3847;SDS011;1939;48.720;9.166;2023-07-02T06:09:02;10.10;;;5.47;;
3847;SDS011;1939;48.720;9.166;2023-07-02T06:11:28;12.10;;;6.33;;
3847;SDS011;1939;48.720;9.166;2023-07-02T06:13:54;13.27;;;6.77;;
3847;SDS011;1939;48.720;9.166;2023-07-02T06:16:20;13.87;;;6.20;;
3847;SDS011;1939;48.720;9.166;2023-07-02T06:18:45;11.77;;;6.07;;
3847;SDS011;1939;48.720;9.166;2023-07-02T06:21:10;11.47;;;6.57;;
3847;SDS011;1939;48.720;9.166;2023-07-02T06:23:45;9.20;;;6.40;;
3847;SDS011;1939;48.720;9.166;2023-07-02T06:26:10;13.50;;;6.07;;
3847;SDS011;1939;48.720;9.166;2023-07-02T06:28:35;17.83;;;7.90;;
3847;SDS011;1939;48.720;9.166;2023-07-02T06:31:01;13.50;;;6.30;;
3847;SDS011;1939;48.720;9.166;2023-07-02T06:33:26;12.13;;;6.70;;
3847;SDS011;1939;48.720;9.166;2023-07-02T06:35:51;15.03;;;7.50;;
3847;SDS011;1939;48.720;9.166;2023-07-02T06:38:16;15.03;;;6.77;;
3847;SDS011;1939;48.720;9.166;2023-07-02T06:40:41;16.43;;;9.03;;
3847;SDS011;1939;48.720;9.166;2023-07-02T06:43:07;13.80;;;7.37;;
3847;SDS011;1939;48.720;9.166;2023-07-02T06:45:32;13.63;;;7.73;;
3847;SDS011;1939;48.720;9.166;2023-07-02T06:47:57;13.73;;;8.27;;
3847;SDS011;1939;48.720;9.166;2023-07-02T06:50:22;16.67;;;8.30;;
3847;SDS011;1939;48.720;9.166;2023-07-02T06:52:48;16.30;;;8.47;;
3847;SDS011;1939;48.720;9.166;2023-07-02T06:55:13;15.50;;;9.27;;
3847;SDS011;1939;48.720;9.166;2023-07-02T06:57:42;14.00;;;7.87;;
3847;SDS011;1939;48.720;9.166;2023-07-02T07:00:08;15.80;;;9.70;;
3847;SDS011;1939;48.720;9.166;2023-07-02T07:02:33;19.63;;;9.97;;
3847;SDS011;1939;48.720;9.166;2023-07-02T07:04:59;20.93;;;9.40;;
3847;SDS011;1939;48.720;9.166;2023-07-02T07:07:24;24.93;;;11.10;;
3847;SDS011;1939;48.720;9.166;2023-07-02T07:09:49;18.17;;;10.23;;
3847;SDS011;1939;48.720;9.166;2023-07-02T07:12:14;17.93;;;10.17;;
3847;SDS011;1939;48.720;9.166;2023-07-02T07:14:39;20.47;;;10.60;;
3847;SDS011;1939;48.720;9.166;2023-07-02T07:17:05;21.60;;;10.33;;
3847;SDS011;1939;48.720;9.166;2023-07-02T07:19:30;18.37;;;10.30;;
3847;SDS011;1939;48.720;9.166;2023-07-02T07:21:55;26.93;;;12.70;;
3847;SDS011;1939;48.720;9.166;2023-07-02T07:24:21;18.80;;;11.50;;
3847;SDS011;1939;48.720;9.166;2023-07-02T07:26:46;19.83;;;10.73;;
3847;SDS011;1939;48.720;9.166;2023-07-02T07:29:11;15.50;;;9.70;;
3847;SDS011;1939;48.720;9.166;2023-07-02T07:31:36;22.20;;;9.87;;
3847;SDS011;1939;48.720;9.166;2023-07-02T07:34:02;23.40;;;11.20;;
3847;SDS011;1939;48.720;9.166;2023-07-02T07:36:27;20.77;;;11.27;;
3847;SDS011;1939;48.720;9.166;2023-07-02T07:38:52;14.70;;;10.03;;
3847;SDS011;1939;48.720;9.166;2023-07-02T07:41:18;15.10;;;9.90;;
3847;SDS011;1939;48.720;9.166;2023-07-02T07:43:43;21.80;;;11.40;;
3847;SDS011;1939;48.720;9.166;2023-07-02T07:46:08;19.47;;;11.63;;
3847;SDS011;1939;48.720;9.166;2023-07-02T07:48:33;21.03;;;12.27;;
3847;SDS011;1939;48.720;9.166;2023-07-02T07:50:58;20.43;;;12.40;;
3847;SDS011;1939;48.720;9.166;2023-07-02T07:53:24;21.13;;;13.07;;
3847;SDS011;1939;48.720;9.166;2023-07-02T07:55:49;20.10;;;11.60;;
3847;SDS011;1939;48.720;9.166;2023-07-02T07:58:14;23.20;;;13.07;;
3847;SDS011;1939;48.720;9.166;2023-07-02T08:00:39;22.03;;;12.30;;
3847;SDS011;1939;48.720;9.166;2023-07-02T08:03:05;20.30;;;12.67;;
3847;SDS011;1939;48.720;9.166;2023-07-02T08:05:30;25.83;;;13.50;;
3847;SDS011;1939;48.720;9.166;2023-07-02T08:07:56;22.83;;;12.43;;
3847;SDS011;1939;48.720;9.166;2023-07-02T08:10:21;24.03;;;12.90;;
3847;SDS011;1939;48.720;9.166;2023-07-02T08:12:46;20.57;;;12.47;;
3847;SDS011;1939;48.720;9.166;2023-07-02T08:15:12;22.23;;;12.77;;
3847;SDS011;1939;48.720;9.166;2023-07-02T08:17:38;24.83;;;14.15;;
3847;SDS011;1939;48.720;9.166;2023-07-02T08:20:03;19.60;;;12.67;;
3847;SDS011;1939;48.720;9.166;2023-07-02T08:22:29;20.80;;;12.57;;
3847;SDS011;1939;48.720;9.166;2023-07-02T08:24:55;17.33;;;12.13;;
3847;SDS011;1939;48.720;9.166;2023-07-02T08:27:20;20.10;;;13.50;;
3847;SDS011;1939;48.720;9.166;2023-07-02T08:29:46;24.40;;;13.30;;
3847;SDS011;1939;48.720;9.166;2023-07-02T08:32:11;22.63;;;13.30;;
3847;SDS011;1939;48.720;9.166;2023-07-02T08:34:36;20.40;;;14.00;;
3847;SDS011;1939;48.720;9.166;2023-07-02T08:37:02;22.30;;;12.83;;
3847;SDS011;1939;48.720;9.166;2023-07-02T08:39:27;20.40;;;13.20;;
3847;SDS011;1939;48.720;9.166;2023-07-02T08:41:52;23.70;;;12.43;;
3847;SDS011;1939;48.720;9.166;2023-07-02T08:44:19;19.47;;;11.80;;
3847;SDS011;1939;48.720;9.166;2023-07-02T08:46:44;19.80;;;13.17;;
3847;SDS011;1939;48.720;9.166;2023-07-02T08:49:10;18.90;;;11.70;;
3847;SDS011;1939;48.720;9.166;2023-07-02T08:51:35;19.00;;;12.10;;
3847;SDS011;1939;48.720;9.166;2023-07-02T08:54:01;20.37;;;12.10;;
3847;SDS011;1939;48.720;9.166;2023-07-02T08:56:26;22.43;;;12.77;;
3847;SDS011;1939;48.720;9.166;2023-07-02T08:58:52;21.80;;;12.57;;
3847;SDS011;1939;48.720;9.166;2023-07-02T09:01:17;16.07;;;10.67;;
3847;SDS011;1939;48.720;9.166;2023-07-02T09:03:42;20.90;;;12.70;;
3847;SDS011;1939;48.720;9.166;2023-07-02T09:06:08;16.87;;;12.57;;
3847;SDS011;1939;48.720;9.166;2023-07-02T09:08:34;16.97;;;11.83;;
3847;SDS011;1939;48.720;9.166;2023-07-02T09:11:06;16.80;;;10.73;;
3847;SDS011;1939;48.720;9.166;2023-07-02T09:13:31;18.50;;;12.40;;
3847;SDS011;1939;48.720;9.166;2023-07-02T09:16:06;15.90;;;10.83;;
3847;SDS011;1939;48.720;9.166;2023-07-02T09:18:31;15.97;;;10.67;;
3847;SDS011;1939;48.720;9.166;2023-07-02T09:20:57;18.70;;;10.67;;
3847;SDS011;1939;48.720;9.166;2023-07-02T09:23:22;14.03;;;10.67;;
3847;SDS011;1939;48.720;9.166;2023-07-02T09:25:47;16.90;;;11.10;;
3847;SDS011;1939;48.720;9.166;2023-07-02T09:28:17;14.57;;;11.07;;
3847;SDS011;1939;48.720;9.166;2023-07-02T09:30:52;18.87;;;10.87;;
3847;SDS011;1939;48.720;9.166;2023-07-02T09:33:17;15.10;;;11.23;;
3847;SDS011;1939;48.720;9.166;2023-07-02T09:35:43;19.23;;;10.50;;
3847;SDS011;1939;48.720;9.166;2023-07-02T09:38:09;21.23;;;11.17;;
3847;SDS011;1939;48.720;9.166;2023-07-02T09:40:35;15.87;;;11.30;;
3847;SDS011;1939;48.720;9.166;2023-07-02T09:43:01;14.47;;;11.23;;
3847;SDS011;1939;48.720;9.166;2023-07-02T09:45:26;17.17;;;11.27;;
3847;SDS011;1939;48.720;9.166;2023-07-02T09:47:51;12.03;;;9.87;;
3847;SDS011;1939;48.720;9.166;2023-07-02T09:50:19;15.30;;;11.90;;
3847;SDS011;1939;48.720;9.166;2023-07-02T09:52:46;19.57;;;12.17;;
3847;SDS011;1939;48.720;9.166;2023-07-02T09:55:11;18.70;;;11.83;;
3847;SDS011;1939;48.720;9.166;2023-07-02T09:57:36;18.23;;;11.87;;
3847;SDS011;1939;48.720;9.166;2023-07-02T10:00:02;20.83;;;12.93;;
3847;SDS011;1939;48.720;9.166;2023-07-02T10:02:28;25.70;;;13.50;;
3847;SDS011;1939;48.720;9.166;2023-07-02T10:04:54;23.80;;;14.33;;
3847;SDS011;1939;48.720;9.166;2023-07-02T10:07:30;22.57;;;14.03;;
3847;SDS011;1939;48.720;9.166;2023-07-02T10:09:55;22.70;;;14.33;;
3847;SDS011;1939;48.720;9.166;2023-07-02T10:12:21;24.80;;;13.27;;
3847;SDS011;1939;48.720;9.166;2023-07-02T10:14:47;25.10;;;15.33;;
3847;SDS011;1939;48.720;9.166;2023-07-02T10:20:08;30.50;;;14.77;;
3847;SDS011;1939;48.720;9.166;2023-07-02T10:22:42;24.13;;;15.53;;
3847;SDS011;1939;48.720;9.166;2023-07-02T10:25:07;24.63;;;14.50;;
3847;SDS011;1939;48.720;9.166;2023-07-02T10:27:33;26.63;;;16.20;;
3847;SDS011;1939;48.720;9.166;2023-07-02T10:29:59;21.50;;;14.57;;
3847;SDS011;1939;48.720;9.166;2023-07-02T10:32:28;20.63;;;13.73;;
3847;SDS011;1939;48.720;9.166;2023-07-02T10:34:54;20.33;;;13.77;;
3847;SDS011;1939;48.720;9.166;2023-07-02T10:37:19;21.63;;;13.10;;
3847;SDS011;1939;48.720;9.166;2023-07-02T10:39:44;22.30;;;13.83;;
3847;SDS011;1939;48.720;9.166;2023-07-02T10:42:10;18.70;;;13.07;;
3847;SDS011;1939;48.720;9.166;2023-07-02T10:44:46;21.10;;;12.10;;
3847;SDS011;1939;48.720;9.166;2023-07-02T10:47:12;35.30;;;14.30;;
3847;SDS011;1939;48.720;9.166;2023-07-02T10:49:37;19.87;;;13.73;;
3847;SDS011;1939;48.720;9.166;2023-07-02T10:52:02;19.03;;;13.97;;
3847;SDS011;1939;48.720;9.166;2023-07-02T10:54:45;20.80;;;14.07;;
3847;SDS011;1939;48.720;9.166;2023-07-02T10:57:10;22.50;;;14.77;;
3847;SDS011;1939;48.720;9.166;2023-07-02T10:59:37;24.73;;;14.93;;
3847;SDS011;1939;48.720;9.166;2023-07-02T11:02:02;23.50;;;13.80;;
3847;SDS011;1939;48.720;9.166;2023-07-02T11:04:31;20.83;;;14.33;;
3847;SDS011;1939;48.720;9.166;2023-07-02T11:06:57;26.60;;;14.20;;
3847;SDS011;1939;48.720;9.166;2023-07-02T11:09:22;25.80;;;15.10;;
3847;SDS011;1939;48.720;9.166;2023-07-02T11:11:53;23.70;;;14.80;;
3847;SDS011;1939;48.720;9.166;2023-07-02T11:14:31;23.43;;;14.10;;
3847;SDS011;1939;48.720;9.166;2023-07-02T11:16:57;22.20;;;13.97;;
3847;SDS011;1939;48.720;9.166;2023-07-02T11:19:23;21.00;;;13.53;;
3847;SDS011;1939;48.720;9.166;2023-07-02T11:21:54;22.40;;;12.70;;
3847;SDS011;1939;48.720;9.166;2023-07-02T11:24:26;21.27;;;12.83;;
3847;SDS011;1939;48.720;9.166;2023-07-02T11:26:51;20.53;;;12.30;;
3847;SDS011;1939;48.720;9.166;2023-07-02T11:29:20;23.47;;;14.03;;
3847;SDS011;1939;48.720;9.166;2023-07-02T11:31:45;24.50;;;13.73;;
3847;SDS011;1939;48.720;9.166;2023-07-02T11:34:11;18.33;;;12.50;;
3847;SDS011;1939;48.720;9.166;2023-07-02T11:36:36;20.50;;;11.70;;
3847;SDS011;1939;48.720;9.166;2023-07-02T11:39:02;17.80;;;11.80;;
3847;SDS011;1939;48.720;9.166;2023-07-02T11:41:36;19.97;;;13.13;;
3847;SDS011;1939;48.720;9.166;2023-07-02T11:44:01;21.80;;;13.73;;
3847;SDS011;1939;48.720;9.166;2023-07-02T11:46:26;28.33;;;13.80;;
3847;SDS011;1939;48.720;9.166;2023-07-02T11:48:51;23.33;;;13.80;;
3847;SDS011;1939;48.720;9.166;2023-07-02T11:51:17;27.10;;;14.20;;
3847;SDS011;1939;48.720;9.166;2023-07-02T11:53:42;26.10;;;12.47;;
3847;SDS011;1939;48.720;9.166;2023-07-02T11:56:08;21.63;;;12.33;;
3847;SDS011;1939;48.720;9.166;2023-07-02T11:58:34;17.50;;;12.33;;
3847;SDS011;1939;48.720;9.166;2023-07-02T12:00:59;22.27;;;12.17;;
3847;SDS011;1939;48.720;9.166;2023-07-02T12:03:25;22.30;;;14.80;;
3847;SDS011;1939;48.720;9.166;2023-07-02T12:05:50;22.60;;;12.50;;
3847;SDS011;1939;48.720;9.166;2023-07-02T12:08:16;22.00;;;13.93;;
3847;SDS011;1939;48.720;9.166;2023-07-02T12:10:41;21.70;;;13.70;;
3847;SDS011;1939;48.720;9.166;2023-07-02T12:13:06;18.30;;;11.97;;
3847;SDS011;1939;48.720;9.166;2023-07-02T12:15:32;23.43;;;12.53;;
3847;SDS011;1939;48.720;9.166;2023-07-02T12:17:57;18.27;;;11.90;;
3847;SDS011;1939;48.720;9.166;2023-07-02T12:20:22;19.67;;;13.20;;
3847;SDS011;1939;48.720;9.166;2023-07-02T12:22:47;18.37;;;12.40;;
3847;SDS011;1939;48.720;9.166;2023-07-02T12:25:12;20.80;;;12.47;;
3847;SDS011;1939;48.720;9.166;2023-07-02T12:27:38;23.33;;;12.97;;
3847;SDS011;1939;48.720;9.166;2023-07-02T12:30:03;20.13;;;12.30;;
3847;SDS011;1939;48.720;9.166;2023-07-02T12:32:28;24.37;;;12.20;;
3847;SDS011;1939;48.720;9.166;2023-07-02T12:34:55;23.17;;;12.20;;
3847;SDS011;1939;48.720;9.166;2023-07-02T12:37:20;22.50;;;12.90;;
3847;SDS011;1939;48.720;9.166;2023-07-02T12:39:46;18.77;;;11.63;;
3847;SDS011;1939;48.720;9.166;2023-07-02T12:42:11;20.80;;;13.57;;
3847;SDS011;1939;48.720;9.166;2023-07-02T12:44:36;21.10;;;12.00;;
3847;SDS011;1939;48.720;9.166;2023-07-02T12:47:01;20.90;;;13.00;;
3847;SDS011;1939;48.720;9.166;2023-07-02T12:49:26;29.10;;;14.00;;
3847;SDS011;1939;48.720;9.166;2023-07-02T12:51:52;21.83;;;13.00;;
3847;SDS011;1939;48.720;9.166;2023-07-02T12:54:17;20.37;;;14.00;;
3847;SDS011;1939;48.720;9.166;2023-07-02T12:56:42;19.97;;;13.03;;
3847;SDS011;1939;48.720;9.166;2023-07-02T12:59:07;20.93;;;12.90;;
3847;SDS011;1939;48.720;9.166;2023-07-02T13:01:32;21.53;;;12.53;;
3847;SDS011;1939;48.720;9.166;2023-07-02T13:03:58;19.37;;;13.97;;
3847;SDS011;1939;48.720;9.166;2023-07-02T13:06:24;22.27;;;12.77;;
3847;SDS011;1939;48.720;9.166;2023-07-02T13:08:49;20.03;;;12.97;;
3847;SDS011;1939;48.720;9.166;2023-07-02T13:11:15;16.43;;;12.53;;
3847;SDS011;1939;48.720;9.166;2023-07-02T13:13:40;18.63;;;12.03;;
3847;SDS011;1939;48.720;9.166;2023-07-02T13:16:06;16.83;;;12.27;;
3847;SDS011;1939;48.720;9.166;2023-07-02T13:18:31;18.30;;;12.63;;
3847;SDS011;1939;48.720;9.166;2023-07-02T13:20:56;20.30;;;12.60;;
3847;SDS011;1939;48.720;9.166;2023-07-02T13:23:22;22.37;;;12.77;;
3847;SDS011;1939;48.720;9.166;2023-07-02T13:25:47;18.03;;;13.13;;
3847;SDS011;1939;48.720;9.166;2023-07-02T13:28:12;18.77;;;12.57;;
3847;SDS011;1939;48.720;9.166;2023-07-02T13:30:37;19.83;;;12.50;;
3847;SDS011;1939;48.720;9.166;2023-07-02T13:33:03;16.10;;;11.97;;
3847;SDS011;1939;48.720;9.166;2023-07-02T13:35:28;18.33;;;11.63;;
3847;SDS011;1939;48.720;9.166;2023-07-02T13:37:53;17.53;;;11.40;;
3847;SDS011;1939;48.720;9.166;2023-07-02T13:40:18;17.50;;;12.30;;
3847;SDS011;1939;48.720;9.166;2023-07-02T13:42:44;19.00;;;11.43;;
3847;SDS011;1939;48.720;9.166;2023-07-02T13:45:09;14.67;;;11.00;;
3847;SDS011;1939;48.720;9.166;2023-07-02T13:47:35;15.70;;;11.50;;
3847;SDS011;1939;48.720;9.166;2023-07-02T13:50:01;19.00;;;11.67;;
3847;SDS011;1939;48.720;9.166;2023-07-02T13:52:27;22.83;;;13.30;;
3847;SDS011;1939;48.720;9.166;2023-07-02T13:54:52;19.00;;;11.53;;
3847;SDS011;1939;48.720;9.166;2023-07-02T13:57:17;17.53;;;11.40;;
3847;SDS011;1939;48.720;9.166;2023-07-02T13:59:42;21.03;;;11.00;;
3847;SDS011;1939;48.720;9.166;2023-07-02T14:02:08;19.67;;;12.67;;
3847;SDS011;1939;48.720;9.166;2023-07-02T14:04:33;22.20;;;13.87;;
3847;SDS011;1939;48.720;9.166;2023-07-02T14:06:58;17.40;;;12.43;;
3847;SDS011;1939;48.720;9.166;2023-07-02T14:09:23;22.60;;;12.73;;
3847;SDS011;1939;48.720;9.166;2023-07-02T14:11:49;21.23;;;11.80;;
3847;SDS011;1939;48.720;9.166;2023-07-02T14:14:14;21.07;;;12.80;;
3847;SDS011;1939;48.720;9.166;2023-07-02T14:16:39;18.23;;;11.90;;
3847;SDS011;1939;48.720;9.166;2023-07-02T14:19:04;18.77;;;12.53;;
3847;SDS011;1939;48.720;9.166;2023-07-02T14:21:30;20.73;;;12.67;;
3847;SDS011;1939;48.720;9.166;2023-07-02T14:23:55;17.90;;;11.93;;
3847;SDS011;1939;48.720;9.166;2023-07-02T14:26:20;18.90;;;12.70;;
3847;SDS011;1939;48.720;9.166;2023-07-02T14:28:45;22.73;;;13.07;;
3847;SDS011;1939;48.720;9.166;2023-07-02T14:31:11;24.70;;;11.77;;
3847;SDS011;1939;48.720;9.166;2023-07-02T14:33:36;19.17;;;11.90;;
3847;SDS011;1939;48.720;9.166;2023-07-02T14:36:02;23.80;;;13.60;;
3847;SDS011;1939;48.720;9.166;2023-07-02T14:38:28;22.80;;;14.23;;
3847;SDS011;1939;48.720;9.166;2023-07-02T14:40:54;20.57;;;12.30;;
3847;SDS011;1939;48.720;9.166;2023-07-02T14:43:20;20.27;;;12.60;;
3847;SDS011;1939;48.720;9.166;2023-07-02T14:45:47;25.10;;;13.50;;
3847;SDS011;1939;48.720;9.166;2023-07-02T14:48:13;23.37;;;13.67;;
3847;SDS011;1939;48.720;9.166;2023-07-02T14:50:45;22.23;;;14.10;;